Česky Dansk Deutsch English Español Suomi Français Magyar Italiano Nederlands norsk Polski Português svenska Türkçe

 

Het Weer

Viru-Viru (Bolivië)

05:00, 14 augustus 2016 (GMT)

NWNNE
WE
SWSSE
Home            
Viru-Viru Santa Cruz / El Trompillo San Javier Concepcion Ascencion De Guarayos San Jose De Chiquitos Camiri San Ignacio De Velasco Sucre Cochabamba Potosi Robore Nueva Asuncion Trinidad San Ignacio De Moxos Villamontes Oruro Tarija Yacuiba Magdalena Santa Ana San Borja San Joaquin

Om een weerknop op uw website of weblog te plaatsen, copieer onderstaande code en plak die in uw pagina. In het eerste vakje staat HTML-code, in het tweede vakje UBB-code.


Add to Google

Details

Wind speed:2 bf, 6 kn, 3.1 m/s, 6.9 miles/h, 11.1 km/h
Wind direction:NNE, 030°
Visibility:Greater than 10000 m, 10 km, 32800 ft, 6.2 miles
Temperature:22°C, 72°F
Gefühlte Temperatur:22°C, 71°F
Dew-point:19°C, 66°F
Atmospheric pressure:1010 hPa, 757.6 mmHg, 29.83 inHg, 0.997 atm
Relative humidity:83.1 %
METAR:SLVR 140500Z 03006KT 9999 NSC 22/19 Q1010

Snelkoppelingen

Actuele weersinformatie van de hele wereld. Voeg locaties toe met het plus (+) symbool. Deze snelkoppelingen kunnen worden toegevoegd aan Google.

Lid van de Technetium groep

website free tracking
StatCounter NetStat W3C Validator

27-10-2020 12:55:30
astro.technetium.be money.technetium.be phote.technetium.be tafeltennistafel.technetium.be www.ligfiets.net